sensor_id;sensor_type;location;lat;lon;timestamp;temperature;humidity
16118;DHT22;8163;50.118;5.342;2022-08-21T00:01:11;16.60;75.50
16118;DHT22;8163;50.118;5.342;2022-08-21T00:03:39;16.60;75.60
16118;DHT22;8163;50.118;5.342;2022-08-21T00:06:07;16.60;75.70
16118;DHT22;8163;50.118;5.342;2022-08-21T00:08:34;16.50;75.70
16118;DHT22;8163;50.118;5.342;2022-08-21T00:11:03;16.50;75.80
16118;DHT22;8163;50.118;5.342;2022-08-21T00:13:30;16.40;76.00
16118;DHT22;8163;50.118;5.342;2022-08-21T00:15:57;16.40;76.00
16118;DHT22;8163;50.118;5.342;2022-08-21T00:18:25;16.40;76.20
16118;DHT22;8163;50.118;5.342;2022-08-21T00:20:52;16.40;76.30
16118;DHT22;8163;50.118;5.342;2022-08-21T00:23:19;16.40;76.30
16118;DHT22;8163;50.118;5.342;2022-08-21T00:25:46;16.30;76.30
16118;DHT22;8163;50.118;5.342;2022-08-21T00:28:15;16.30;76.60
16118;DHT22;8163;50.118;5.342;2022-08-21T00:30:43;16.20;76.50
16118;DHT22;8163;50.118;5.342;2022-08-21T00:33:11;16.20;76.50
16118;DHT22;8163;50.118;5.342;2022-08-21T00:35:40;16.20;76.50
16118;DHT22;8163;50.118;5.342;2022-08-21T00:38:08;16.10;76.40
16118;DHT22;8163;50.118;5.342;2022-08-21T00:40:40;16.10;76.70
16118;DHT22;8163;50.118;5.342;2022-08-21T00:43:09;16.10;76.80
16118;DHT22;8163;50.118;5.342;2022-08-21T00:45:38;16.10;76.90
16118;DHT22;8163;50.118;5.342;2022-08-21T00:48:06;16.00;76.90
16118;DHT22;8163;50.118;5.342;2022-08-21T00:50:35;16.00;77.10
16118;DHT22;8163;50.118;5.342;2022-08-21T00:53:06;16.00;77.30
16118;DHT22;8163;50.118;5.342;2022-08-21T00:55:34;16.00;77.50
16118;DHT22;8163;50.118;5.342;2022-08-21T00:58:04;16.00;77.50
16118;DHT22;8163;50.118;5.342;2022-08-21T01:00:36;16.00;77.60
16118;DHT22;8163;50.118;5.342;2022-08-21T01:03:09;16.00;77.70
16118;DHT22;8163;50.118;5.342;2022-08-21T01:05:37;16.00;78.60
16118;DHT22;8163;50.118;5.342;2022-08-21T01:08:06;16.00;77.70
16118;DHT22;8163;50.118;5.342;2022-08-21T01:10:34;15.90;77.60
16118;DHT22;8163;50.118;5.342;2022-08-21T01:13:02;15.80;77.60
16118;DHT22;8163;50.118;5.342;2022-08-21T01:15:33;15.80;77.80
16118;DHT22;8163;50.118;5.342;2022-08-21T01:18:02;15.80;78.00
16118;DHT22;8163;50.118;5.342;2022-08-21T01:20:32;15.80;78.20
16118;DHT22;8163;50.118;5.342;2022-08-21T01:23:00;15.80;78.20
16118;DHT22;8163;50.118;5.342;2022-08-21T01:25:27;15.80;78.30
16118;DHT22;8163;50.118;5.342;2022-08-21T01:27:55;15.70;78.30
16118;DHT22;8163;50.118;5.342;2022-08-21T01:30:25;15.70;78.40
16118;DHT22;8163;50.118;5.342;2022-08-21T01:32:53;15.70;78.50
16118;DHT22;8163;50.118;5.342;2022-08-21T01:35:21;15.60;78.40
16118;DHT22;8163;50.118;5.342;2022-08-21T01:37:48;15.60;78.50
16118;DHT22;8163;50.118;5.342;2022-08-21T01:40:18;15.50;78.50
16118;DHT22;8163;50.118;5.342;2022-08-21T01:42:46;15.50;78.80
16118;DHT22;8163;50.118;5.342;2022-08-21T01:45:15;15.50;78.80
16118;DHT22;8163;50.118;5.342;2022-08-21T01:47:42;15.40;78.70
16118;DHT22;8163;50.118;5.342;2022-08-21T01:50:13;15.40;78.90
16118;DHT22;8163;50.118;5.342;2022-08-21T01:52:40;15.30;79.10
16118;DHT22;8163;50.118;5.342;2022-08-21T01:55:09;15.30;79.20
16118;DHT22;8163;50.118;5.342;2022-08-21T01:57:37;15.30;79.40
16118;DHT22;8163;50.118;5.342;2022-08-21T02:00:08;15.30;79.60
16118;DHT22;8163;50.118;5.342;2022-08-21T02:02:36;15.30;79.80
16118;DHT22;8163;50.118;5.342;2022-08-21T02:05:04;15.20;79.90
16118;DHT22;8163;50.118;5.342;2022-08-21T02:07:36;15.20;80.10
16118;DHT22;8163;50.118;5.342;2022-08-21T02:10:05;15.20;80.60
16118;DHT22;8163;50.118;5.342;2022-08-21T02:12:32;15.20;80.80
16118;DHT22;8163;50.118;5.342;2022-08-21T02:15:01;15.20;81.00
16118;DHT22;8163;50.118;5.342;2022-08-21T02:17:37;15.30;81.60
16118;DHT22;8163;50.118;5.342;2022-08-21T02:20:06;15.30;82.00
16118;DHT22;8163;50.118;5.342;2022-08-21T02:22:33;15.30;82.10
16118;DHT22;8163;50.118;5.342;2022-08-21T02:25:00;15.30;82.20
16118;DHT22;8163;50.118;5.342;2022-08-21T02:27:27;15.20;82.40
16118;DHT22;8163;50.118;5.342;2022-08-21T02:29:55;15.20;82.60
16118;DHT22;8163;50.118;5.342;2022-08-21T02:32:24;15.20;82.90
16118;DHT22;8163;50.118;5.342;2022-08-21T02:34:51;15.20;83.30
16118;DHT22;8163;50.118;5.342;2022-08-21T02:37:18;15.10;83.30
16118;DHT22;8163;50.118;5.342;2022-08-21T02:39:45;15.00;83.70
16118;DHT22;8163;50.118;5.342;2022-08-21T02:42:12;15.00;84.20
16118;DHT22;8163;50.118;5.342;2022-08-21T02:44:39;15.00;84.70
16118;DHT22;8163;50.118;5.342;2022-08-21T02:47:06;15.00;85.20
16118;DHT22;8163;50.118;5.342;2022-08-21T02:49:35;15.00;85.90
16118;DHT22;8163;50.118;5.342;2022-08-21T02:52:02;14.90;86.90
16118;DHT22;8163;50.118;5.342;2022-08-21T02:54:31;14.90;87.50
16118;DHT22;8163;50.118;5.342;2022-08-21T02:56:58;14.90;88.00
16118;DHT22;8163;50.118;5.342;2022-08-21T02:59:25;14.90;88.50
16118;DHT22;8163;50.118;5.342;2022-08-21T03:01:52;14.90;88.90
16118;DHT22;8163;50.118;5.342;2022-08-21T03:04:19;14.90;89.40
16118;DHT22;8163;50.118;5.342;2022-08-21T03:06:47;14.80;89.80
16118;DHT22;8163;50.118;5.342;2022-08-21T03:09:14;14.70;90.30
16118;DHT22;8163;50.118;5.342;2022-08-21T03:11:41;14.70;90.60
16118;DHT22;8163;50.118;5.342;2022-08-21T03:14:09;14.60;91.10
16118;DHT22;8163;50.118;5.342;2022-08-21T03:16:36;14.60;91.60
16118;DHT22;8163;50.118;5.342;2022-08-21T03:19:03;14.60;92.00
16118;DHT22;8163;50.118;5.342;2022-08-21T03:21:30;14.60;92.50
16118;DHT22;8163;50.118;5.342;2022-08-21T03:23:58;14.60;92.80
16118;DHT22;8163;50.118;5.342;2022-08-21T03:26:25;14.50;93.40
16118;DHT22;8163;50.118;5.342;2022-08-21T03:28:52;14.50;93.60
16118;DHT22;8163;50.118;5.342;2022-08-21T03:31:20;14.50;94.50
16118;DHT22;8163;50.118;5.342;2022-08-21T03:33:47;14.40;94.40
16118;DHT22;8163;50.118;5.342;2022-08-21T03:36:13;14.40;94.80
16118;DHT22;8163;50.118;5.342;2022-08-21T03:38:41;14.40;95.20
16118;DHT22;8163;50.118;5.342;2022-08-21T03:41:10;14.40;95.60
16118;DHT22;8163;50.118;5.342;2022-08-21T03:43:37;14.40;96.30
16118;DHT22;8163;50.118;5.342;2022-08-21T03:46:05;14.40;96.80
16118;DHT22;8163;50.118;5.342;2022-08-21T03:48:33;14.40;97.10
16118;DHT22;8163;50.118;5.342;2022-08-21T03:51:01;14.30;97.40
16118;DHT22;8163;50.118;5.342;2022-08-21T03:53:28;14.30;97.60
16118;DHT22;8163;50.118;5.342;2022-08-21T03:55:55;14.30;98.20
16118;DHT22;8163;50.118;5.342;2022-08-21T03:58:27;14.20;98.50
16118;DHT22;8163;50.118;5.342;2022-08-21T04:00:58;14.20;99.20
16118;DHT22;8163;50.118;5.342;2022-08-21T04:03:26;14.20;99.60
16118;DHT22;8163;50.118;5.342;2022-08-21T04:05:53;14.10;99.90
16118;DHT22;8163;50.118;5.342;2022-08-21T04:08:20;14.10;99.90
16118;DHT22;8163;50.118;5.342;2022-08-21T04:10:49;14.20;99.90
16118;DHT22;8163;50.118;5.342;2022-08-21T04:13:17;14.20;99.90
16118;DHT22;8163;50.118;5.342;2022-08-21T04:15:45;14.20;99.90
16118;DHT22;8163;50.118;5.342;2022-08-21T04:18:13;14.20;99.90
16118;DHT22;8163;50.118;5.342;2022-08-21T04:20:41;14.10;99.90
16118;DHT22;8163;50.118;5.342;2022-08-21T04:23:08;14.10;99.90
16118;DHT22;8163;50.118;5.342;2022-08-21T04:25:35;14.10;99.90
16118;DHT22;8163;50.118;5.342;2022-08-21T04:28:03;14.10;99.90
16118;DHT22;8163;50.118;5.342;2022-08-21T04:30:30;14.10;99.90
16118;DHT22;8163;50.118;5.342;2022-08-21T04:32:59;14.00;99.90
16118;DHT22;8163;50.118;5.342;2022-08-21T04:35:27;14.00;99.90
16118;DHT22;8163;50.118;5.342;2022-08-21T04:37:55;14.00;99.90
16118;DHT22;8163;50.118;5.342;2022-08-21T04:40:25;14.00;99.90
16118;DHT22;8163;50.118;5.342;2022-08-21T04:42:56;14.00;99.90
16118;DHT22;8163;50.118;5.342;2022-08-21T04:45:26;14.00;99.90
16118;DHT22;8163;50.118;5.342;2022-08-21T04:47:55;14.00;99.90
16118;DHT22;8163;50.118;5.342;2022-08-21T04:50:26;14.10;99.90
16118;DHT22;8163;50.118;5.342;2022-08-21T04:52:54;14.10;99.90
16118;DHT22;8163;50.118;5.342;2022-08-21T04:55:23;14.10;99.90
16118;DHT22;8163;50.118;5.342;2022-08-21T04:57:53;14.30;99.90
16118;DHT22;8163;50.118;5.342;2022-08-21T05:00:22;14.80;99.90
16118;DHT22;8163;50.118;5.342;2022-08-21T05:02:51;15.60;99.90
16118;DHT22;8163;50.118;5.342;2022-08-21T05:05:23;16.40;99.90
16118;DHT22;8163;50.118;5.342;2022-08-21T05:07:50;17.00;99.90
16118;DHT22;8163;50.118;5.342;2022-08-21T05:10:18;17.70;99.90
16118;DHT22;8163;50.118;5.342;2022-08-21T05:12:45;18.20;99.90
16118;DHT22;8163;50.118;5.342;2022-08-21T05:15:12;18.90;99.90
16118;DHT22;8163;50.118;5.342;2022-08-21T05:17:40;19.40;98.40
16118;DHT22;8163;50.118;5.342;2022-08-21T05:20:12;20.00;96.00
16118;DHT22;8163;50.118;5.342;2022-08-21T05:22:41;20.40;94.30
16118;DHT22;8163;50.118;5.342;2022-08-21T05:25:09;20.90;92.80
16118;DHT22;8163;50.118;5.342;2022-08-21T05:27:36;21.30;91.90
16118;DHT22;8163;50.118;5.342;2022-08-21T05:30:05;21.70;91.30
16118;DHT22;8163;50.118;5.342;2022-08-21T05:32:33;22.20;90.40
16118;DHT22;8163;50.118;5.342;2022-08-21T05:35:00;22.80;89.00
16118;DHT22;8163;50.118;5.342;2022-08-21T05:37:27;23.40;87.30
16118;DHT22;8163;50.118;5.342;2022-08-21T05:39:56;23.90;84.80
16118;DHT22;8163;50.118;5.342;2022-08-21T05:42:23;24.40;82.50
16118;DHT22;8163;50.118;5.342;2022-08-21T05:44:50;24.70;81.00
16118;DHT22;8163;50.118;5.342;2022-08-21T05:47:19;25.20;79.40
16118;DHT22;8163;50.118;5.342;2022-08-21T05:49:46;25.60;77.40
16118;DHT22;8163;50.118;5.342;2022-08-21T05:52:18;25.90;76.50
16118;DHT22;8163;50.118;5.342;2022-08-21T05:54:47;26.10;75.20
16118;DHT22;8163;50.118;5.342;2022-08-21T05:57:15;26.20;74.20
16118;DHT22;8163;50.118;5.342;2022-08-21T05:59:42;26.60;73.00
16118;DHT22;8163;50.118;5.342;2022-08-21T06:02:09;26.80;71.80
16118;DHT22;8163;50.118;5.342;2022-08-21T06:04:37;26.80;70.80
16118;DHT22;8163;50.118;5.342;2022-08-21T06:07:04;26.20;70.30
16118;DHT22;8163;50.118;5.342;2022-08-21T06:09:32;26.60;69.40
16118;DHT22;8163;50.118;5.342;2022-08-21T06:12:04;26.10;69.10
16118;DHT22;8163;50.118;5.342;2022-08-21T06:14:32;27.20;67.90
16118;DHT22;8163;50.118;5.342;2022-08-21T06:17:02;28.30;66.20
16118;DHT22;8163;50.118;5.342;2022-08-21T06:19:29;29.30;64.80
16118;DHT22;8163;50.118;5.342;2022-08-21T06:21:56;29.70;63.70
16118;DHT22;8163;50.118;5.342;2022-08-21T06:24:24;29.10;63.00
16118;DHT22;8163;50.118;5.342;2022-08-21T06:26:51;28.90;62.90
16118;DHT22;8163;50.118;5.342;2022-08-21T06:29:18;29.60;61.50
16118;DHT22;8163;50.118;5.342;2022-08-21T06:31:47;29.80;59.90
16118;DHT22;8163;50.118;5.342;2022-08-21T06:34:15;29.50;59.40
16118;DHT22;8163;50.118;5.342;2022-08-21T06:36:43;29.00;59.20
16118;DHT22;8163;50.118;5.342;2022-08-21T06:39:10;28.50;59.10
16118;DHT22;8163;50.118;5.342;2022-08-21T06:41:39;28.80;58.80
16118;DHT22;8163;50.118;5.342;2022-08-21T06:44:06;29.90;58.20
16118;DHT22;8163;50.118;5.342;2022-08-21T06:46:33;31.10;57.10
16118;DHT22;8163;50.118;5.342;2022-08-21T06:49:01;31.80;56.20
16118;DHT22;8163;50.118;5.342;2022-08-21T06:51:28;32.50;55.50
16118;DHT22;8163;50.118;5.342;2022-08-21T06:53:56;33.10;54.80
16118;DHT22;8163;50.118;5.342;2022-08-21T06:56:23;33.50;53.80
16118;DHT22;8163;50.118;5.342;2022-08-21T06:58:50;33.90;52.90
16118;DHT22;8163;50.118;5.342;2022-08-21T07:01:18;33.70;52.10
16118;DHT22;8163;50.118;5.342;2022-08-21T07:03:45;33.70;51.70
16118;DHT22;8163;50.118;5.342;2022-08-21T07:06:13;33.80;51.40
16118;DHT22;8163;50.118;5.342;2022-08-21T07:08:40;34.20;50.40
16118;DHT22;8163;50.118;5.342;2022-08-21T07:11:11;34.00;50.30
16118;DHT22;8163;50.118;5.342;2022-08-21T07:13:39;34.30;50.50
16118;DHT22;8163;50.118;5.342;2022-08-21T07:16:06;34.80;50.00
16118;DHT22;8163;50.118;5.342;2022-08-21T07:18:33;34.40;49.80
16118;DHT22;8163;50.118;5.342;2022-08-21T07:21:01;33.80;49.70
16118;DHT22;8163;50.118;5.342;2022-08-21T07:23:33;34.10;49.50
16118;DHT22;8163;50.118;5.342;2022-08-21T07:26:00;34.60;48.70
16118;DHT22;8163;50.118;5.342;2022-08-21T07:28:28;33.60;49.20
16118;DHT22;8163;50.118;5.342;2022-08-21T07:30:57;32.60;49.40
16118;DHT22;8163;50.118;5.342;2022-08-21T07:33:26;32.30;49.70
16118;DHT22;8163;50.118;5.342;2022-08-21T07:35:55;32.80;49.70
16118;DHT22;8163;50.118;5.342;2022-08-21T07:38:22;32.50;49.80
16118;DHT22;8163;50.118;5.342;2022-08-21T07:40:52;32.70;49.50
16118;DHT22;8163;50.118;5.342;2022-08-21T07:43:20;32.40;49.30
16118;DHT22;8163;50.118;5.342;2022-08-21T07:45:48;32.60;49.40
16118;DHT22;8163;50.118;5.342;2022-08-21T07:48:15;32.20;49.20
16118;DHT22;8163;50.118;5.342;2022-08-21T07:50:43;32.20;49.20
16118;DHT22;8163;50.118;5.342;2022-08-21T07:53:10;31.50;49.10
16118;DHT22;8163;50.118;5.342;2022-08-21T07:55:37;30.90;49.30
16118;DHT22;8163;50.118;5.342;2022-08-21T07:58:05;30.30;49.70
16118;DHT22;8163;50.118;5.342;2022-08-21T08:00:33;29.90;50.10
16118;DHT22;8163;50.118;5.342;2022-08-21T08:03:00;29.90;50.20
16118;DHT22;8163;50.118;5.342;2022-08-21T08:05:30;30.10;50.20
16118;DHT22;8163;50.118;5.342;2022-08-21T08:07:57;31.00;50.00
16118;DHT22;8163;50.118;5.342;2022-08-21T08:10:25;31.20;49.90
16118;DHT22;8163;50.118;5.342;2022-08-21T08:12:53;30.90;50.10
16118;DHT22;8163;50.118;5.342;2022-08-21T08:15:24;31.20;50.40
16118;DHT22;8163;50.118;5.342;2022-08-21T08:17:52;31.50;50.20
16118;DHT22;8163;50.118;5.342;2022-08-21T08:20:21;32.10;49.70
16118;DHT22;8163;50.118;5.342;2022-08-21T08:22:48;32.20;49.20
16118;DHT22;8163;50.118;5.342;2022-08-21T08:25:16;31.60;49.10
16118;DHT22;8163;50.118;5.342;2022-08-21T08:27:43;30.90;49.50
16118;DHT22;8163;50.118;5.342;2022-08-21T08:30:13;30.40;49.60
16118;DHT22;8163;50.118;5.342;2022-08-21T08:32:42;30.40;49.60
16118;DHT22;8163;50.118;5.342;2022-08-21T08:35:10;30.90;49.90
16118;DHT22;8163;50.118;5.342;2022-08-21T08:37:38;31.70;49.80
16118;DHT22;8163;50.118;5.342;2022-08-21T08:40:09;31.70;49.40
16118;DHT22;8163;50.118;5.342;2022-08-21T08:42:37;32.10;48.90
16118;DHT22;8163;50.118;5.342;2022-08-21T08:45:08;32.70;48.40
16118;DHT22;8163;50.118;5.342;2022-08-21T08:47:38;33.00;48.00
16118;DHT22;8163;50.118;5.342;2022-08-21T08:50:13;33.40;47.70
16118;DHT22;8163;50.118;5.342;2022-08-21T08:52:49;33.90;47.10
16118;DHT22;8163;50.118;5.342;2022-08-21T08:55:19;34.70;46.70
16118;DHT22;8163;50.118;5.342;2022-08-21T08:57:49;35.10;45.80
16118;DHT22;8163;50.118;5.342;2022-08-21T09:00:19;35.40;45.20
16118;DHT22;8163;50.118;5.342;2022-08-21T09:02:51;35.50;44.60
16118;DHT22;8163;50.118;5.342;2022-08-21T09:05:23;35.30;43.60
16118;DHT22;8163;50.118;5.342;2022-08-21T09:08:13;34.60;43.70
16118;DHT22;8163;50.118;5.342;2022-08-21T09:10:50;33.90;43.60
16118;DHT22;8163;50.118;5.342;2022-08-21T09:13:26;33.40;44.30
16118;DHT22;8163;50.118;5.342;2022-08-21T09:16:05;33.30;44.90
16118;DHT22;8163;50.118;5.342;2022-08-21T09:18:41;33.20;44.60
16118;DHT22;8163;50.118;5.342;2022-08-21T09:21:20;33.20;44.50
16118;DHT22;8163;50.118;5.342;2022-08-21T09:23:57;33.20;44.30
16118;DHT22;8163;50.118;5.342;2022-08-21T09:26:29;33.00;44.30
16118;DHT22;8163;50.118;5.342;2022-08-21T09:28:59;33.00;44.20
16118;DHT22;8163;50.118;5.342;2022-08-21T09:31:29;33.10;44.20
16118;DHT22;8163;50.118;5.342;2022-08-21T09:34:08;33.10;44.10
16118;DHT22;8163;50.118;5.342;2022-08-21T09:36:42;33.20;43.60
16118;DHT22;8163;50.118;5.342;2022-08-21T09:39:11;33.20;43.50
16118;DHT22;8163;50.118;5.342;2022-08-21T09:41:40;33.10;43.50
16118;DHT22;8163;50.118;5.342;2022-08-21T09:44:08;33.20;43.20
16118;DHT22;8163;50.118;5.342;2022-08-21T09:46:35;33.20;42.90
16118;DHT22;8163;50.118;5.342;2022-08-21T09:49:03;33.20;42.70
16118;DHT22;8163;50.118;5.342;2022-08-21T09:51:35;33.40;42.40
16118;DHT22;8163;50.118;5.342;2022-08-21T09:54:15;33.50;42.00
16118;DHT22;8163;50.118;5.342;2022-08-21T09:56:53;33.60;41.40
16118;DHT22;8163;50.118;5.342;2022-08-21T09:59:39;33.60;41.00
16118;DHT22;8163;50.118;5.342;2022-08-21T10:02:22;33.70;41.30
16118;DHT22;8163;50.118;5.342;2022-08-21T10:04:52;34.00;40.80
16118;DHT22;8163;50.118;5.342;2022-08-21T10:07:23;34.40;41.10
16118;DHT22;8163;50.118;5.342;2022-08-21T10:10:13;34.80;40.60
16118;DHT22;8163;50.118;5.342;2022-08-21T10:12:48;34.90;39.70
16118;DHT22;8163;50.118;5.342;2022-08-21T10:15:38;35.00;39.60
16118;DHT22;8163;50.118;5.342;2022-08-21T10:18:25;35.20;39.20
16118;DHT22;8163;50.118;5.342;2022-08-21T10:20:59;35.20;39.90
16118;DHT22;8163;50.118;5.342;2022-08-21T10:23:42;35.40;39.40
16118;DHT22;8163;50.118;5.342;2022-08-21T10:26:25;35.60;39.20
16118;DHT22;8163;50.118;5.342;2022-08-21T10:29:01;35.60;39.10
16118;DHT22;8163;50.118;5.342;2022-08-21T10:31:35;35.30;39.20
16118;DHT22;8163;50.118;5.342;2022-08-21T10:34:17;35.30;39.30
16118;DHT22;8163;50.118;5.342;2022-08-21T10:36:58;35.30;39.20
16118;DHT22;8163;50.118;5.342;2022-08-21T10:39:33;35.20;39.40
16118;DHT22;8163;50.118;5.342;2022-08-21T10:42:31;35.50;39.40
16118;DHT22;8163;50.118;5.342;2022-08-21T10:45:08;35.70;39.00
16118;DHT22;8163;50.118;5.342;2022-08-21T10:47:44;35.90;39.00
16118;DHT22;8163;50.118;5.342;2022-08-21T10:50:24;36.20;39.00
16118;DHT22;8163;50.118;5.342;2022-08-21T10:53:11;36.20;38.50
16118;DHT22;8163;50.118;5.342;2022-08-21T10:55:46;36.30;38.30
16118;DHT22;8163;50.118;5.342;2022-08-21T10:58:22;36.30;38.10
16118;DHT22;8163;50.118;5.342;2022-08-21T11:39:09;36.10;38.90
16118;DHT22;8163;50.118;5.342;2022-08-21T11:41:43;35.80;38.30
16118;DHT22;8163;50.118;5.342;2022-08-21T11:44:18;35.50;37.90
16118;DHT22;8163;50.118;5.342;2022-08-21T11:46:57;35.00;37.40
16118;DHT22;8163;50.118;5.342;2022-08-21T11:49:49;34.80;37.60
16118;DHT22;8163;50.118;5.342;2022-08-21T11:52:23;34.70;37.70
16118;DHT22;8163;50.118;5.342;2022-08-21T11:54:59;34.60;37.70
16118;DHT22;8163;50.118;5.342;2022-08-21T11:57:35;34.80;37.80
16118;DHT22;8163;50.118;5.342;2022-08-21T12:00:06;34.90;37.60
16118;DHT22;8163;50.118;5.342;2022-08-21T12:02:40;34.90;37.40
16118;DHT22;8163;50.118;5.342;2022-08-21T12:05:25;34.90;37.20
16118;DHT22;8163;50.118;5.342;2022-08-21T12:08:02;35.00;37.20
16118;DHT22;8163;50.118;5.342;2022-08-21T12:10:39;35.30;37.20
16118;DHT22;8163;50.118;5.342;2022-08-21T12:13:09;35.70;37.10
16118;DHT22;8163;50.118;5.342;2022-08-21T12:15:40;36.10;37.10
16118;DHT22;8163;50.118;5.342;2022-08-21T12:18:23;36.20;36.60
16118;DHT22;8163;50.118;5.342;2022-08-21T12:21:04;36.60;36.60
16118;DHT22;8163;50.118;5.342;2022-08-21T12:23:34;36.60;36.20
16118;DHT22;8163;50.118;5.342;2022-08-21T12:26:25;36.40;36.30
16118;DHT22;8163;50.118;5.342;2022-08-21T12:29:16;35.80;36.10
16118;DHT22;8163;50.118;5.342;2022-08-21T12:31:53;34.90;36.20
16118;DHT22;8163;50.118;5.342;2022-08-21T12:37:37;33.60;37.20
16118;DHT22;8163;50.118;5.342;2022-08-21T12:40:11;33.00;37.40
16118;DHT22;8163;50.118;5.342;2022-08-21T12:42:43;32.50;37.80
16118;DHT22;8163;50.118;5.342;2022-08-21T12:45:19;32.20;38.00
16118;DHT22;8163;50.118;5.342;2022-08-21T12:47:50;32.00;38.50
16118;DHT22;8163;50.118;5.342;2022-08-21T12:50:21;31.80;38.70
16118;DHT22;8163;50.118;5.342;2022-08-21T12:52:54;31.70;39.10
16118;DHT22;8163;50.118;5.342;2022-08-21T12:55:27;31.80;39.20
16118;DHT22;8163;50.118;5.342;2022-08-21T12:57:56;32.10;39.40
16118;DHT22;8163;50.118;5.342;2022-08-21T13:00:28;32.50;39.40
16118;DHT22;8163;50.118;5.342;2022-08-21T13:02:57;32.70;39.30
16118;DHT22;8163;50.118;5.342;2022-08-21T13:05:29;32.60;39.10
16118;DHT22;8163;50.118;5.342;2022-08-21T13:07:58;32.40;38.80
16118;DHT22;8163;50.118;5.342;2022-08-21T13:10:30;32.20;38.70
16118;DHT22;8163;50.118;5.342;2022-08-21T13:13:02;32.00;38.80
16118;DHT22;8163;50.118;5.342;2022-08-21T13:15:32;31.80;39.00
16118;DHT22;8163;50.118;5.342;2022-08-21T13:18:02;31.80;39.30
16118;DHT22;8163;50.118;5.342;2022-08-21T13:20:32;31.60;39.30
16118;DHT22;8163;50.118;5.342;2022-08-21T13:23:01;31.60;39.30
16118;DHT22;8163;50.118;5.342;2022-08-21T13:25:30;31.60;39.60
16118;DHT22;8163;50.118;5.342;2022-08-21T13:28:08;31.60;39.50
16118;DHT22;8163;50.118;5.342;2022-08-21T13:30:40;31.50;40.00
16118;DHT22;8163;50.118;5.342;2022-08-21T13:33:10;31.30;39.40
16118;DHT22;8163;50.118;5.342;2022-08-21T13:35:47;31.20;39.80
16118;DHT22;8163;50.118;5.342;2022-08-21T13:38:15;31.20;40.00
16118;DHT22;8163;50.118;5.342;2022-08-21T13:40:46;31.30;40.20
16118;DHT22;8163;50.118;5.342;2022-08-21T13:43:18;31.30;40.20
16118;DHT22;8163;50.118;5.342;2022-08-21T13:45:49;31.30;40.20
16118;DHT22;8163;50.118;5.342;2022-08-21T13:48:17;31.50;40.20
16118;DHT22;8163;50.118;5.342;2022-08-21T13:50:45;31.60;40.30
16118;DHT22;8163;50.118;5.342;2022-08-21T13:53:21;31.60;40.10
16118;DHT22;8163;50.118;5.342;2022-08-21T13:55:49;31.60;40.10
16118;DHT22;8163;50.118;5.342;2022-08-21T13:58:26;31.60;40.10
16118;DHT22;8163;50.118;5.342;2022-08-21T14:00:54;31.60;40.10
16118;DHT22;8163;50.118;5.342;2022-08-21T14:03:33;31.70;40.20
16118;DHT22;8163;50.118;5.342;2022-08-21T14:06:01;31.90;40.30
16118;DHT22;8163;50.118;5.342;2022-08-21T14:08:31;31.80;40.20
16118;DHT22;8163;50.118;5.342;2022-08-21T14:11:00;31.70;40.20
16118;DHT22;8163;50.118;5.342;2022-08-21T14:13:36;31.60;40.20
16118;DHT22;8163;50.118;5.342;2022-08-21T14:16:11;31.60;40.30
16118;DHT22;8163;50.118;5.342;2022-08-21T14:18:51;31.50;40.60
16118;DHT22;8163;50.118;5.342;2022-08-21T14:21:30;31.30;40.70
16118;DHT22;8163;50.118;5.342;2022-08-21T14:24:08;31.10;40.70
16118;DHT22;8163;50.118;5.342;2022-08-21T14:26:41;30.90;40.80
16118;DHT22;8163;50.118;5.342;2022-08-21T14:29:13;30.80;41.00
16118;DHT22;8163;50.118;5.342;2022-08-21T14:31:41;30.50;41.20
16118;DHT22;8163;50.118;5.342;2022-08-21T14:34:10;30.40;41.40
16118;DHT22;8163;50.118;5.342;2022-08-21T14:36:39;30.30;41.60
16118;DHT22;8163;50.118;5.342;2022-08-21T14:39:06;30.30;41.90
16118;DHT22;8163;50.118;5.342;2022-08-21T14:41:33;30.30;42.00
16118;DHT22;8163;50.118;5.342;2022-08-21T14:44:00;30.30;42.10
16118;DHT22;8163;50.118;5.342;2022-08-21T14:46:30;30.40;42.10
16118;DHT22;8163;50.118;5.342;2022-08-21T14:48:58;30.40;42.10
16118;DHT22;8163;50.118;5.342;2022-08-21T14:51:25;30.30;42.00
16118;DHT22;8163;50.118;5.342;2022-08-21T14:53:52;30.30;42.10
16118;DHT22;8163;50.118;5.342;2022-08-21T14:56:19;30.30;42.20
16118;DHT22;8163;50.118;5.342;2022-08-21T14:58:49;30.30;42.40
16118;DHT22;8163;50.118;5.342;2022-08-21T15:01:18;30.30;42.40
16118;DHT22;8163;50.118;5.342;2022-08-21T15:03:48;30.20;42.40
16118;DHT22;8163;50.118;5.342;2022-08-21T15:06:16;30.10;42.40
16118;DHT22;8163;50.118;5.342;2022-08-21T15:08:46;30.00;42.40
16118;DHT22;8163;50.118;5.342;2022-08-21T15:11:17;29.90;42.60
16118;DHT22;8163;50.118;5.342;2022-08-21T15:13:45;29.80;42.90
16118;DHT22;8163;50.118;5.342;2022-08-21T15:16:13;29.70;43.00
16118;DHT22;8163;50.118;5.342;2022-08-21T15:18:40;29.60;42.90
16118;DHT22;8163;50.118;5.342;2022-08-21T15:21:10;29.50;43.20
16118;DHT22;8163;50.118;5.342;2022-08-21T15:23:37;29.50;43.50
16118;DHT22;8163;50.118;5.342;2022-08-21T15:26:04;29.30;43.60
16118;DHT22;8163;50.118;5.342;2022-08-21T15:28:33;29.30;43.70
16118;DHT22;8163;50.118;5.342;2022-08-21T15:31:03;29.20;43.90
16118;DHT22;8163;50.118;5.342;2022-08-21T15:33:31;29.20;44.30
16118;DHT22;8163;50.118;5.342;2022-08-21T15:35:58;29.10;44.10
16118;DHT22;8163;50.118;5.342;2022-08-21T15:38:26;29.00;44.30
16118;DHT22;8163;50.118;5.342;2022-08-21T15:40:53;28.90;44.40
16118;DHT22;8163;50.118;5.342;2022-08-21T15:43:24;28.90;44.50
16118;DHT22;8163;50.118;5.342;2022-08-21T15:45:51;28.70;44.60
16118;DHT22;8163;50.118;5.342;2022-08-21T15:48:19;28.70;44.70
16118;DHT22;8163;50.118;5.342;2022-08-21T15:50:47;28.60;44.80
16118;DHT22;8163;50.118;5.342;2022-08-21T15:53:14;28.60;45.00
16118;DHT22;8163;50.118;5.342;2022-08-21T15:55:42;28.50;45.60
16118;DHT22;8163;50.118;5.342;2022-08-21T15:58:13;28.50;45.10
16118;DHT22;8163;50.118;5.342;2022-08-21T16:00:42;28.40;45.10
16118;DHT22;8163;50.118;5.342;2022-08-21T16:03:12;28.40;45.20
16118;DHT22;8163;50.118;5.342;2022-08-21T16:05:42;28.30;45.10
16118;DHT22;8163;50.118;5.342;2022-08-21T16:08:09;28.30;45.30
16118;DHT22;8163;50.118;5.342;2022-08-21T16:10:38;28.20;45.30
16118;DHT22;8163;50.118;5.342;2022-08-21T16:13:14;28.10;45.40
16118;DHT22;8163;50.118;5.342;2022-08-21T16:15:41;28.00;45.60
16118;DHT22;8163;50.118;5.342;2022-08-21T16:18:09;27.90;45.60
16118;DHT22;8163;50.118;5.342;2022-08-21T16:20:36;27.80;45.90
16118;DHT22;8163;50.118;5.342;2022-08-21T16:23:03;27.70;46.00
16118;DHT22;8163;50.118;5.342;2022-08-21T16:25:31;27.70;46.10
16118;DHT22;8163;50.118;5.342;2022-08-21T16:28:00;27.60;46.30
16118;DHT22;8163;50.118;5.342;2022-08-21T16:30:29;27.60;46.30
16118;DHT22;8163;50.118;5.342;2022-08-21T16:32:59;27.50;46.40
16118;DHT22;8163;50.118;5.342;2022-08-21T16:35:26;27.40;46.50
16118;DHT22;8163;50.118;5.342;2022-08-21T16:37:53;27.30;46.60
16118;DHT22;8163;50.118;5.342;2022-08-21T16:40:20;27.20;46.70
16118;DHT22;8163;50.118;5.342;2022-08-21T16:42:49;27.00;46.70
16118;DHT22;8163;50.118;5.342;2022-08-21T16:45:18;26.90;46.90